البصرة, العراق

07:28 PM AST on أمتèبر 02, 2014 (GMT +0300)
Basrah International | Change Station
CLOSE
Current Station
Airport
Location: Basrah,
Elevation: 7 ft
Nearby Weather Stations

Elev 7 ft 30.52 °N, 47.78 °E | Updated 28 minutes ago

Clear
صافية
90 °F
Feels Like 95 °F
N
12
ريح متغير ريح from SSE

هذا اليوم
High -- | Low -- °F
--% Chance of Precip.
Yesterday
High -- | Low -- °F
Precip. -- في
5:42 AM 5:33 PM
الربع الاول, 60% visible
الضغط 29.80 في
وضوح الرؤية -9999.0 أميال
سحابات
مؤشر الحرارة 95 °F
نقطة الندى 70 °F
الرطوبة 52%
Rainfall 0.00 في
عمق الثلج Not available.
الأشعة فوق البنفسجية Not available.
Pollen Not available.
جودة الهواء Not available.
Flu Activity Not available.
METAR ORMM 021600Z 15010KT CAVOK 32/21 Q1009 NOSIG

More Conditions Fewer Conditions

الضغط 29.80 في
وضوح الرؤية -9999.0 أميال
سحابات
مؤشر الحرارة 95 °F
نقطة الندى 70 °F
الرطوبة 52%
Rainfall 0.00 في
عمق الثلج Not available.
الأشعة فوق البنفسجية Not available.
Pollen Not available.
جودة الهواء Not available.
Flu Activity Not available.
METAR ORMM 021600Z 15010KT CAVOK 32/21 Q1009 NOSIG

More Conditions Fewer Conditions

10-Day Weather Forecast

Almanac

علم الفلك

Oct. 02, 2014 Rise Set
Actual Time 5:42 AM AST 5:33 PM AST
Civil Twilight 5:18 AM AST 5:57 PM AST
Nautical Twilight 4:50 AM AST 6:25 PM AST
Astronomical Twilight 4:22 AM AST 6:53 PM AST
قمر 12:58 PM AST لايوجد غروب للقمر
Length Of Visible Light 12h 38m
طول الیوم
11h 50m
Tomorrow will be 1m 50s shorter.
الربع الاول, 60% of the Moon is Illuminated
هذا اليوم
الربع الاول
Oct 8
بدر
Oct 15
الربع الآخر
Oct 23
New
Oct 30
الربع الاول

Today's Extremes

Country Highs Country Lows

Community

WunderPhotos

Upload Photos

1,758,290 photos uploaded!

WunderBlogs® & News

Nearby

جودة الهواء

Not available.

عمق الثلج

Not available.

Earthquake Activity

City Distance Mag. Time & Date
No recent earthquake activity has been reported nearby.
Minimum magnitude displayed is 2.5.

Coastal Water Temperatures

مكان درجات الحرارة
No Stations Reporting

Nearby Weather Stations